ECC70 KLAX-KSLC
Flight info
| Callsign | ECC70 |
|---|---|
| Flight time | 1h 42m |
| Altitude | 41000 |
| Route | ORCKA5 LAS Q70 BLIPP Q842 WINEN MLF PITTT1 |
| Aircraft | C750/M-SBDE3FGHRWXY/S |
Departure
| Time | 2026-04-20 19:24 |
|---|---|
| Airport | Los Angeles International Airport (KLAX) |
Arrival
| Time | 2026-04-20 21:06 |
|---|---|
| Airport | Salt Lake City International Airport (KSLC) |
| Time | Latitude | Longitude | Altitude | Speed | Heading |
|---|---|---|---|---|---|
| 2026-04-20 19:02 | 33.94784 | -118.40176 | 114 ft | 0 kts | 145° |
| 2026-04-20 19:15 | 33.94785 | -118.40176 | 114 ft | 1 kts | 145° |
| 2026-04-20 19:15 | 33.94796 | -118.40186 | 114 ft | 2 kts | 145° |
| 2026-04-20 19:16 | 33.94809 | -118.40196 | 114 ft | 2 kts | 145° |
| 2026-04-20 19:16 | 33.94817 | -118.40203 | 114 ft | 1 kts | 135° |
| 2026-04-20 19:16 | 33.94820 | -118.40218 | 114 ft | 1 kts | 76° |
| 2026-04-20 19:16 | 33.94818 | -118.40224 | 114 ft | 0 kts | 71° |
| 2026-04-20 19:19 | 33.94826 | -118.40207 | 114 ft | 5 kts | 63° |
| 2026-04-20 19:19 | 33.94841 | -118.40144 | 113 ft | 11 kts | 82° |
| 2026-04-20 19:19 | 33.94908 | -118.40074 | 112 ft | 15 kts | 37° |
| 2026-04-20 19:20 | 33.94939 | -118.39950 | 111 ft | 9 kts | 57° |
| 2026-04-20 19:20 | 33.94953 | -118.39933 | 110 ft | 0 kts | 34° |
| 2026-04-20 19:22 | 33.94961 | -118.39928 | 110 ft | 2 kts | 21° |
| 2026-04-20 19:23 | 33.94982 | -118.39924 | 109 ft | 3 kts | 12° |
| 2026-04-20 19:23 | 33.95014 | -118.39923 | 109 ft | 4 kts | 346° |
| 2026-04-20 19:23 | 33.95037 | -118.39951 | 110 ft | 12 kts | 286° |
| 2026-04-20 19:23 | 33.94987 | -118.40486 | 117 ft | 111 kts | 264° |
| 2026-04-20 19:24 | 33.94874 | -118.41687 | 197 ft | 166 kts | 269° |
| 2026-04-20 19:24 | 33.94756 | -118.43174 | 422 ft | 185 kts | 263° |
| 2026-04-20 19:24 | 33.94595 | -118.44714 | 874 ft | 186 kts | 262° |
| 2026-04-20 19:24 | 33.94403 | -118.46248 | 1378 ft | 185 kts | 261° |
| 2026-04-20 19:25 | 33.94046 | -118.47710 | 1846 ft | 184 kts | 233° |
| 2026-04-20 19:25 | 33.93015 | -118.48483 | 2349 ft | 178 kts | 186° |
| 2026-04-20 19:25 | 33.91859 | -118.48109 | 2868 ft | 173 kts | 140° |
| 2026-04-20 19:25 | 33.91314 | -118.46883 | 3381 ft | 170 kts | 93° |
| 2026-04-20 19:26 | 33.91678 | -118.45588 | 3899 ft | 167 kts | 50° |
| 2026-04-20 19:26 | 33.92432 | -118.44531 | 4324 ft | 171 kts | 59° |
| 2026-04-20 19:26 | 33.93132 | -118.43276 | 4517 ft | 186 kts | 51° |
| 2026-04-20 19:26 | 33.93933 | -118.42072 | 5008 ft | 183 kts | 56° |
| 2026-04-20 19:27 | 33.94563 | -118.41008 | 5396 ft | 182 kts | 56° |
| 2026-04-20 19:27 | 33.95325 | -118.39695 | 5803 ft | 202 kts | 57° |
| 2026-04-20 19:27 | 33.96179 | -118.38191 | 6359 ft | 235 kts | 57° |
| 2026-04-20 19:27 | 33.97173 | -118.36440 | 6899 ft | 271 kts | 57° |
| 2026-04-20 19:28 | 33.98143 | -118.34734 | 7390 ft | 301 kts | 57° |
| 2026-04-20 19:28 | 33.99359 | -118.32590 | 8133 ft | 320 kts | 57° |
| 2026-04-20 19:28 | 34.00611 | -118.30379 | 8871 ft | 318 kts | 57° |
| 2026-04-20 19:28 | 34.01841 | -118.28213 | 9595 ft | 316 kts | 58° |
| 2026-04-20 19:29 | 34.03070 | -118.26045 | 10319 ft | 313 kts | 58° |
| 2026-04-20 19:29 | 34.04293 | -118.23888 | 11044 ft | 310 kts | 58° |
| 2026-04-20 19:29 | 34.05497 | -118.21763 | 11758 ft | 307 kts | 58° |
| 2026-04-20 19:29 | 34.06682 | -118.19668 | 12467 ft | 304 kts | 58° |
| 2026-04-20 19:30 | 34.07860 | -118.17589 | 13172 ft | 300 kts | 58° |
| 2026-04-20 19:30 | 34.09030 | -118.15517 | 13891 ft | 295 kts | 58° |
| 2026-04-20 19:30 | 34.10170 | -118.13502 | 14596 ft | 290 kts | 58° |
| 2026-04-20 19:30 | 34.11276 | -118.11543 | 15289 ft | 284 kts | 58° |
| 2026-04-20 19:31 | 34.12368 | -118.09609 | 15979 ft | 277 kts | 58° |
| 2026-04-20 19:31 | 34.13431 | -118.07725 | 16654 ft | 269 kts | 58° |
| 2026-04-20 19:31 | 34.14472 | -118.05879 | 17337 ft | 271 kts | 58° |
| 2026-04-20 19:31 | 34.15532 | -118.03992 | 18069 ft | 277 kts | 58° |
| 2026-04-20 19:32 | 34.16626 | -118.02048 | 18818 ft | 282 kts | 58° |
| 2026-04-20 19:32 | 34.17724 | -118.00100 | 19554 ft | 287 kts | 58° |
| 2026-04-20 19:32 | 34.18856 | -117.98089 | 20302 ft | 290 kts | 57° |
| 2026-04-20 19:32 | 34.19976 | -117.96095 | 21042 ft | 293 kts | 57° |
| 2026-04-20 19:33 | 34.21133 | -117.94037 | 21796 ft | 296 kts | 57° |
| 2026-04-20 19:33 | 34.22269 | -117.92014 | 22528 ft | 297 kts | 57° |
| 2026-04-20 19:33 | 34.23425 | -117.89959 | 23273 ft | 297 kts | 57° |
| 2026-04-20 19:33 | 34.24579 | -117.87906 | 24021 ft | 295 kts | 57° |
| 2026-04-20 19:34 | 34.25720 | -117.85879 | 24759 ft | 292 kts | 57° |
| 2026-04-20 19:34 | 34.26840 | -117.83884 | 25495 ft | 288 kts | 58° |
| 2026-04-20 19:34 | 34.27949 | -117.81903 | 26225 ft | 280 kts | 58° |
| 2026-04-20 19:34 | 34.29012 | -117.80006 | 26934 ft | 271 kts | 58° |
| 2026-04-20 19:35 | 34.30040 | -117.78170 | 27633 ft | 260 kts | 58° |
| 2026-04-20 19:35 | 34.31035 | -117.76389 | 28230 ft | 253 kts | 59° |
| 2026-04-20 19:35 | 34.32015 | -117.74633 | 28694 ft | 249 kts | 59° |
| 2026-04-20 19:35 | 34.32967 | -117.72929 | 29167 ft | 244 kts | 59° |
| 2026-04-20 19:36 | 34.33908 | -117.71249 | 29634 ft | 238 kts | 59° |
| 2026-04-20 19:36 | 34.34819 | -117.69609 | 29967 ft | 238 kts | 60° |
| 2026-04-20 19:36 | 34.35597 | -117.67832 | 29946 ft | 254 kts | 67° |
| 2026-04-20 19:36 | 34.36513 | -117.65706 | 29018 ft | 310 kts | 54° |
| 2026-04-20 19:37 | 34.37964 | -117.63792 | 29626 ft | 307 kts | 49° |
| 2026-04-20 19:37 | 34.39364 | -117.61789 | 29914 ft | 314 kts | 54° |
| 2026-04-20 19:37 | 34.40700 | -117.59661 | 30233 ft | 321 kts | 55° |
| 2026-04-20 19:37 | 34.42048 | -117.57451 | 30545 ft | 329 kts | 56° |
| 2026-04-20 19:38 | 34.43415 | -117.55178 | 30858 ft | 336 kts | 56° |
| 2026-04-20 19:38 | 34.44794 | -117.52870 | 31169 ft | 344 kts | 56° |
| 2026-04-20 19:38 | 34.46205 | -117.50503 | 31479 ft | 351 kts | 56° |
| 2026-04-20 19:38 | 34.47648 | -117.48080 | 31790 ft | 358 kts | 56° |
| 2026-04-20 19:39 | 34.49135 | -117.45583 | 32108 ft | 364 kts | 56° |
| 2026-04-20 19:39 | 34.50632 | -117.43064 | 32414 ft | 371 kts | 56° |
| 2026-04-20 19:39 | 34.52155 | -117.40498 | 32726 ft | 377 kts | 55° |
| 2026-04-20 19:39 | 34.53691 | -117.37910 | 33037 ft | 383 kts | 55° |
| 2026-04-20 19:40 | 34.55244 | -117.35294 | 33341 ft | 389 kts | 55° |
| 2026-04-20 19:40 | 34.56829 | -117.32619 | 33646 ft | 394 kts | 56° |
| 2026-04-20 19:40 | 34.58449 | -117.29886 | 33970 ft | 400 kts | 56° |
| 2026-04-20 19:40 | 34.60086 | -117.27117 | 34308 ft | 405 kts | 56° |
| 2026-04-20 19:41 | 34.61730 | -117.24339 | 34637 ft | 410 kts | 56° |
| 2026-04-20 19:41 | 34.63378 | -117.21547 | 34965 ft | 414 kts | 56° |
| 2026-04-20 19:41 | 34.65071 | -117.18681 | 35295 ft | 418 kts | 56° |
| 2026-04-20 19:41 | 34.66762 | -117.15814 | 35636 ft | 422 kts | 56° |
| 2026-04-20 19:42 | 34.68491 | -117.12880 | 35984 ft | 426 kts | 56° |
| 2026-04-20 19:42 | 34.70213 | -117.09957 | 36332 ft | 430 kts | 56° |
| 2026-04-20 19:42 | 34.71947 | -117.07011 | 36675 ft | 433 kts | 56° |
| 2026-04-20 19:42 | 34.73706 | -117.04018 | 37017 ft | 436 kts | 56° |
| 2026-04-20 19:43 | 34.75461 | -117.01030 | 37359 ft | 439 kts | 56° |
| 2026-04-20 19:43 | 34.77247 | -116.97986 | 37703 ft | 441 kts | 56° |
| 2026-04-20 19:43 | 34.79016 | -116.94973 | 38043 ft | 444 kts | 56° |
| 2026-04-20 19:43 | 34.80796 | -116.91931 | 38386 ft | 446 kts | 56° |
| 2026-04-20 19:44 | 34.82607 | -116.88840 | 38731 ft | 447 kts | 56° |
| 2026-04-20 19:44 | 34.84398 | -116.85776 | 39079 ft | 449 kts | 56° |
| 2026-04-20 19:44 | 34.86218 | -116.82661 | 39426 ft | 450 kts | 56° |
| 2026-04-20 19:44 | 34.88019 | -116.79575 | 39770 ft | 451 kts | 56° |
| 2026-04-20 19:45 | 34.89820 | -116.76489 | 40060 ft | 452 kts | 56° |
| 2026-04-20 19:45 | 34.91652 | -116.73355 | 40346 ft | 453 kts | 54° |
| 2026-04-20 19:45 | 34.93727 | -116.70446 | 40630 ft | 454 kts | 47° |
| 2026-04-20 19:45 | 34.95887 | -116.67645 | 40916 ft | 454 kts | 47° |
| 2026-04-20 19:46 | 34.98035 | -116.64822 | 41030 ft | 459 kts | 47° |
| 2026-04-20 19:46 | 35.02446 | -116.59017 | 41041 ft | 472 kts | 47° |
| 2026-04-20 19:47 | 35.06943 | -116.53082 | 41041 ft | 486 kts | 47° |
| 2026-04-20 19:47 | 35.11564 | -116.46974 | 41022 ft | 489 kts | 47° |
| 2026-04-20 19:48 | 35.16221 | -116.40807 | 41029 ft | 497 kts | 47° |
| 2026-04-20 19:48 | 35.20943 | -116.34543 | 41033 ft | 508 kts | 47° |
| 2026-04-20 19:49 | 35.25777 | -116.28118 | 41039 ft | 519 kts | 47° |
| 2026-04-20 19:49 | 35.30672 | -116.21598 | 41040 ft | 526 kts | 47° |
| 2026-04-20 19:50 | 35.35628 | -116.14986 | 41038 ft | 526 kts | 47° |
| 2026-04-20 19:50 | 35.40550 | -116.08406 | 41038 ft | 524 kts | 47° |
| 2026-04-20 19:51 | 35.45455 | -116.01835 | 41044 ft | 523 kts | 47° |
| 2026-04-20 19:51 | 35.50349 | -115.95265 | 41059 ft | 522 kts | 47° |
| 2026-04-20 19:52 | 35.55242 | -115.88686 | 41063 ft | 522 kts | 47° |
| 2026-04-20 19:52 | 35.60116 | -115.82117 | 41066 ft | 522 kts | 47° |
| 2026-04-20 19:53 | 35.64977 | -115.75521 | 41068 ft | 522 kts | 47° |
| 2026-04-20 19:53 | 35.69804 | -115.68887 | 41076 ft | 522 kts | 47° |
| 2026-04-20 19:54 | 35.74632 | -115.62241 | 41086 ft | 522 kts | 47° |
| 2026-04-20 19:54 | 35.79459 | -115.55583 | 41101 ft | 522 kts | 47° |
| 2026-04-20 19:55 | 35.84268 | -115.48937 | 41116 ft | 522 kts | 47° |
| 2026-04-20 19:55 | 35.89087 | -115.42267 | 41109 ft | 521 kts | 47° |
| 2026-04-20 19:56 | 35.93089 | -115.36714 | 41098 ft | 521 kts | 47° |
| 2026-04-20 19:56 | 35.98678 | -115.28946 | 41061 ft | 521 kts | 47° |
| 2026-04-20 19:57 | 36.03480 | -115.22256 | 41037 ft | 520 kts | 47° |
| 2026-04-20 19:57 | 36.08291 | -115.15650 | 41016 ft | 518 kts | 43° |
| 2026-04-20 19:58 | 36.13713 | -115.09814 | 41021 ft | 516 kts | 39° |
| 2026-04-20 19:58 | 36.19100 | -115.04018 | 41015 ft | 516 kts | 39° |
| 2026-04-20 19:59 | 36.24526 | -114.98167 | 41006 ft | 515 kts | 39° |
| 2026-04-20 19:59 | 36.29889 | -114.92368 | 41008 ft | 515 kts | 39° |
| 2026-04-20 20:00 | 36.35283 | -114.86531 | 41020 ft | 515 kts | 39° |
| 2026-04-20 20:00 | 36.40636 | -114.80720 | 41034 ft | 514 kts | 39° |
| 2026-04-20 20:01 | 36.46035 | -114.74854 | 41030 ft | 514 kts | 39° |
| 2026-04-20 20:01 | 36.51390 | -114.69022 | 41019 ft | 515 kts | 39° |
| 2026-04-20 20:02 | 36.56745 | -114.63181 | 41021 ft | 514 kts | 39° |
| 2026-04-20 20:02 | 36.62107 | -114.57318 | 41031 ft | 514 kts | 39° |
| 2026-04-20 20:03 | 36.67477 | -114.51436 | 41034 ft | 514 kts | 39° |
| 2026-04-20 20:03 | 36.72992 | -114.45924 | 41038 ft | 509 kts | 29° |
| 2026-04-20 20:04 | 36.79002 | -114.41260 | 41057 ft | 510 kts | 30° |
| 2026-04-20 20:04 | 36.85016 | -114.36541 | 41057 ft | 510 kts | 30° |
| 2026-04-20 20:05 | 36.90991 | -114.31844 | 41060 ft | 510 kts | 30° |
| 2026-04-20 20:05 | 36.97012 | -114.27106 | 41061 ft | 510 kts | 30° |
| 2026-04-20 20:06 | 37.02993 | -114.22385 | 41060 ft | 510 kts | 30° |
| 2026-04-20 20:06 | 37.08966 | -114.17664 | 41078 ft | 509 kts | 30° |
| 2026-04-20 20:07 | 37.14925 | -114.12946 | 41095 ft | 509 kts | 30° |
| 2026-04-20 20:07 | 37.20908 | -114.08200 | 41109 ft | 509 kts | 30° |
| 2026-04-20 20:08 | 37.26858 | -114.03467 | 41020 ft | 491 kts | 30° |
| 2026-04-20 20:08 | 37.29676 | -114.01223 | 41170 ft | 474 kts | 30° |
| 2026-04-20 20:08 | 37.32461 | -113.99007 | 40218 ft | 476 kts | 30° |
| 2026-04-20 20:08 | 37.35199 | -113.96825 | 39399 ft | 471 kts | 30° |
| 2026-04-20 20:09 | 37.37950 | -113.94628 | 38485 ft | 467 kts | 30° |
| 2026-04-20 20:09 | 37.40666 | -113.92458 | 37577 ft | 462 kts | 30° |
| 2026-04-20 20:09 | 37.43382 | -113.90287 | 36667 ft | 458 kts | 30° |
| 2026-04-20 20:09 | 37.46051 | -113.88151 | 35771 ft | 455 kts | 30° |
| 2026-04-20 20:10 | 37.48678 | -113.86048 | 35228 ft | 443 kts | 30° |
| 2026-04-20 20:10 | 37.51234 | -113.83996 | 35184 ft | 425 kts | 30° |
| 2026-04-20 20:10 | 37.53639 | -113.82064 | 35186 ft | 403 kts | 30° |
| 2026-04-20 20:10 | 37.55957 | -113.80202 | 35191 ft | 383 kts | 29° |
| 2026-04-20 20:11 | 37.58150 | -113.78440 | 35192 ft | 366 kts | 29° |
| 2026-04-20 20:11 | 37.60243 | -113.76756 | 35191 ft | 351 kts | 29° |
| 2026-04-20 20:11 | 37.62246 | -113.75144 | 35196 ft | 337 kts | 28° |
| 2026-04-20 20:11 | 37.64187 | -113.73582 | 35200 ft | 325 kts | 28° |
| 2026-04-20 20:12 | 37.66051 | -113.72082 | 35196 ft | 313 kts | 28° |
| 2026-04-20 20:12 | 37.67873 | -113.70612 | 35203 ft | 302 kts | 28° |
| 2026-04-20 20:12 | 37.69604 | -113.69217 | 35201 ft | 292 kts | 28° |
| 2026-04-20 20:13 | 37.72914 | -113.66546 | 35205 ft | 273 kts | 27° |
| 2026-04-20 20:13 | 37.74485 | -113.65277 | 35203 ft | 266 kts | 27° |
| 2026-04-20 20:13 | 37.76022 | -113.64035 | 35241 ft | 263 kts | 27° |
| 2026-04-20 20:13 | 37.77560 | -113.62794 | 35222 ft | 261 kts | 27° |
| 2026-04-20 20:14 | 37.79080 | -113.61565 | 35228 ft | 259 kts | 27° |
| 2026-04-20 20:14 | 37.80598 | -113.60334 | 35229 ft | 257 kts | 27° |
| 2026-04-20 20:14 | 37.82098 | -113.59121 | 35224 ft | 255 kts | 27° |
| 2026-04-20 20:14 | 37.83596 | -113.57909 | 35224 ft | 253 kts | 27° |
| 2026-04-20 20:15 | 37.85066 | -113.56720 | 35222 ft | 251 kts | 27° |
| 2026-04-20 20:15 | 37.86533 | -113.55527 | 35228 ft | 249 kts | 27° |
| 2026-04-20 20:15 | 37.87982 | -113.54351 | 35240 ft | 250 kts | 27° |
| 2026-04-20 20:15 | 37.89460 | -113.53152 | 35245 ft | 251 kts | 27° |
| 2026-04-20 20:16 | 37.90919 | -113.51971 | 35245 ft | 252 kts | 27° |
| 2026-04-20 20:16 | 37.92392 | -113.50773 | 35237 ft | 253 kts | 27° |
| 2026-04-20 20:16 | 37.93842 | -113.49474 | 35242 ft | 257 kts | 36° |
| 2026-04-20 20:16 | 37.95178 | -113.47937 | 35249 ft | 259 kts | 37° |
| 2026-04-20 20:17 | 37.96513 | -113.46410 | 35246 ft | 261 kts | 37° |
| 2026-04-20 20:17 | 37.97877 | -113.44869 | 35256 ft | 265 kts | 36° |
| 2026-04-20 20:17 | 37.99266 | -113.43298 | 35257 ft | 269 kts | 37° |
| 2026-04-20 20:17 | 38.00674 | -113.41703 | 35258 ft | 274 kts | 36° |
| 2026-04-20 20:18 | 38.02105 | -113.40080 | 35259 ft | 279 kts | 37° |
| 2026-04-20 20:18 | 38.03558 | -113.38433 | 35141 ft | 288 kts | 37° |
| 2026-04-20 20:18 | 38.05080 | -113.36703 | 35192 ft | 291 kts | 37° |
| 2026-04-20 20:18 | 38.06616 | -113.34961 | 34760 ft | 311 kts | 38° |
| 2026-04-20 20:19 | 38.08285 | -113.33072 | 34265 ft | 331 kts | 38° |
| 2026-04-20 20:19 | 38.10038 | -113.31077 | 33779 ft | 350 kts | 38° |
| 2026-04-20 20:19 | 38.11891 | -113.28969 | 33322 ft | 369 kts | 39° |
| 2026-04-20 20:19 | 38.13830 | -113.26759 | 32845 ft | 376 kts | 39° |
| 2026-04-20 20:20 | 38.15786 | -113.24526 | 32335 ft | 380 kts | 39° |
| 2026-04-20 20:20 | 38.17732 | -113.22302 | 31832 ft | 383 kts | 39° |
| 2026-04-20 20:20 | 38.19738 | -113.20015 | 31318 ft | 386 kts | 40° |
| 2026-04-20 20:20 | 38.21743 | -113.17724 | 30807 ft | 389 kts | 40° |
| 2026-04-20 20:21 | 38.23749 | -113.15429 | 30301 ft | 392 kts | 40° |
| 2026-04-20 20:21 | 38.25756 | -113.13135 | 29796 ft | 394 kts | 41° |
| 2026-04-20 20:21 | 38.27811 | -113.10777 | 29284 ft | 395 kts | 41° |
| 2026-04-20 20:21 | 38.29831 | -113.08458 | 28782 ft | 397 kts | 41° |
| 2026-04-20 20:22 | 38.31196 | -113.06891 | 28445 ft | 397 kts | 41° |
| 2026-04-20 20:22 | 38.33944 | -113.03738 | 27768 ft | 399 kts | 41° |
| 2026-04-20 20:22 | 38.36030 | -113.01490 | 27247 ft | 398 kts | 32° |
| 2026-04-20 20:22 | 38.38544 | -112.99976 | 26764 ft | 395 kts | 20° |
| 2026-04-20 20:23 | 38.41047 | -112.98658 | 26270 ft | 395 kts | 21° |
| 2026-04-20 20:23 | 38.43615 | -112.97296 | 25758 ft | 396 kts | 21° |
| 2026-04-20 20:23 | 38.46116 | -112.95966 | 25264 ft | 396 kts | 21° |
| 2026-04-20 20:23 | 38.48678 | -112.94600 | 24753 ft | 395 kts | 21° |
| 2026-04-20 20:24 | 38.51184 | -112.93262 | 24269 ft | 394 kts | 21° |
| 2026-04-20 20:24 | 38.53686 | -112.91927 | 24208 ft | 381 kts | 21° |
| 2026-04-20 20:24 | 38.56094 | -112.90638 | 24195 ft | 369 kts | 21° |
| 2026-04-20 20:24 | 38.58420 | -112.89394 | 24188 ft | 358 kts | 21° |
| 2026-04-20 20:25 | 38.60674 | -112.88189 | 24191 ft | 348 kts | 21° |
| 2026-04-20 20:25 | 38.62886 | -112.87003 | 24203 ft | 339 kts | 21° |
| 2026-04-20 20:25 | 38.65023 | -112.85860 | 24202 ft | 330 kts | 21° |
| 2026-04-20 20:25 | 38.67111 | -112.84740 | 24201 ft | 323 kts | 21° |
| 2026-04-20 20:26 | 38.69160 | -112.83640 | 24200 ft | 316 kts | 21° |
| 2026-04-20 20:26 | 38.71173 | -112.82560 | 24211 ft | 309 kts | 20° |
| 2026-04-20 20:26 | 38.73115 | -112.81516 | 24210 ft | 303 kts | 20° |
| 2026-04-20 20:26 | 38.75064 | -112.80469 | 24208 ft | 297 kts | 20° |
| 2026-04-20 20:27 | 38.76949 | -112.79456 | 24194 ft | 293 kts | 20° |
| 2026-04-20 20:27 | 38.78793 | -112.78462 | 24178 ft | 288 kts | 20° |
| 2026-04-20 20:27 | 38.80674 | -112.77452 | 23711 ft | 298 kts | 20° |
| 2026-04-20 20:27 | 38.82596 | -112.76421 | 23281 ft | 307 kts | 20° |
| 2026-04-20 20:28 | 38.83925 | -112.75706 | 22959 ft | 314 kts | 21° |
| 2026-04-20 20:28 | 38.86656 | -112.74232 | 22318 ft | 327 kts | 21° |
| 2026-04-20 20:28 | 38.88776 | -112.73089 | 21832 ft | 335 kts | 21° |
| 2026-04-20 20:28 | 38.90975 | -112.71901 | 21338 ft | 343 kts | 21° |
| 2026-04-20 20:29 | 38.93173 | -112.70714 | 20856 ft | 349 kts | 21° |
| 2026-04-20 20:29 | 38.95424 | -112.69497 | 20364 ft | 354 kts | 22° |
| 2026-04-20 20:29 | 38.97689 | -112.68270 | 19877 ft | 358 kts | 22° |
| 2026-04-20 20:29 | 39.00001 | -112.67019 | 19382 ft | 362 kts | 22° |
| 2026-04-20 20:30 | 39.02318 | -112.65761 | 18892 ft | 365 kts | 22° |
| 2026-04-20 20:30 | 39.04666 | -112.64488 | 18401 ft | 367 kts | 22° |
| 2026-04-20 20:30 | 39.07038 | -112.63201 | 18020 ft | 367 kts | 22° |
| 2026-04-20 20:30 | 39.09445 | -112.61891 | 18028 ft | 395 kts | 22° |
| 2026-04-20 20:31 | 39.12077 | -112.60459 | 18023 ft | 424 kts | 22° |
| 2026-04-20 20:31 | 39.14886 | -112.58928 | 18017 ft | 451 kts | 22° |
| 2026-04-20 20:31 | 39.17843 | -112.57318 | 18014 ft | 475 kts | 22° |
| 2026-04-20 20:31 | 39.20940 | -112.55629 | 18004 ft | 477 kts | 22° |
| 2026-04-20 20:32 | 39.23936 | -112.53999 | 17984 ft | 456 kts | 22° |
| 2026-04-20 20:32 | 39.26806 | -112.52433 | 17956 ft | 449 kts | 22° |
| 2026-04-20 20:32 | 39.29658 | -112.50873 | 18067 ft | 438 kts | 22° |
| 2026-04-20 20:32 | 39.32413 | -112.49313 | 18137 ft | 430 kts | 24° |
| 2026-04-20 20:33 | 39.35126 | -112.47759 | 18149 ft | 425 kts | 23° |
| 2026-04-20 20:33 | 39.37803 | -112.46220 | 18152 ft | 420 kts | 23° |
| 2026-04-20 20:33 | 39.40481 | -112.44686 | 18157 ft | 416 kts | 23° |
| 2026-04-20 20:33 | 39.43081 | -112.43192 | 18160 ft | 413 kts | 23° |
| 2026-04-20 20:34 | 39.45727 | -112.41672 | 18163 ft | 410 kts | 23° |
| 2026-04-20 20:34 | 39.48289 | -112.40196 | 18174 ft | 407 kts | 23° |
| 2026-04-20 20:34 | 39.50870 | -112.38713 | 18177 ft | 405 kts | 23° |
| 2026-04-20 20:34 | 39.53471 | -112.37212 | 18182 ft | 403 kts | 23° |
| 2026-04-20 20:35 | 39.55989 | -112.35763 | 18199 ft | 401 kts | 23° |
| 2026-04-20 20:35 | 39.58534 | -112.34293 | 18207 ft | 400 kts | 24° |
| 2026-04-20 20:35 | 39.61074 | -112.32828 | 18213 ft | 399 kts | 24° |
| 2026-04-20 20:35 | 39.63605 | -112.31364 | 18213 ft | 398 kts | 24° |
| 2026-04-20 20:36 | 39.66150 | -112.29893 | 18219 ft | 397 kts | 24° |
| 2026-04-20 20:36 | 39.68663 | -112.28438 | 18218 ft | 397 kts | 24° |
| 2026-04-20 20:36 | 39.71166 | -112.26988 | 18218 ft | 396 kts | 24° |
| 2026-04-20 20:36 | 39.73694 | -112.25525 | 18220 ft | 396 kts | 24° |
| 2026-04-20 20:37 | 39.76214 | -112.24063 | 18221 ft | 395 kts | 24° |
| 2026-04-20 20:37 | 39.78709 | -112.22614 | 18225 ft | 395 kts | 24° |
| 2026-04-20 20:37 | 39.81216 | -112.21157 | 18222 ft | 395 kts | 24° |
| 2026-04-20 20:37 | 39.83731 | -112.19696 | 18220 ft | 394 kts | 24° |
| 2026-04-20 20:38 | 39.86241 | -112.18237 | 17780 ft | 407 kts | 24° |
| 2026-04-20 20:38 | 39.88883 | -112.16697 | 17064 ft | 424 kts | 24° |
| 2026-04-20 20:38 | 39.91611 | -112.15107 | 16353 ft | 437 kts | 24° |
| 2026-04-20 20:38 | 39.94413 | -112.13471 | 15639 ft | 448 kts | 24° |
| 2026-04-20 20:39 | 39.97268 | -112.11803 | 14926 ft | 456 kts | 24° |
| 2026-04-20 20:39 | 40.00069 | -112.10114 | 14064 ft | 430 kts | 25° |
| 2026-04-20 20:39 | 40.02746 | -112.08504 | 13409 ft | 416 kts | 25° |
| 2026-04-20 20:39 | 40.05334 | -112.06937 | 12670 ft | 407 kts | 25° |
| 2026-04-20 20:40 | 40.07839 | -112.05424 | 12247 ft | 392 kts | 25° |
| 2026-04-20 20:40 | 40.10230 | -112.03977 | 12177 ft | 370 kts | 25° |
| 2026-04-20 20:40 | 40.12522 | -112.02591 | 12163 ft | 349 kts | 25° |
| 2026-04-20 20:40 | 40.14659 | -112.01296 | 12162 ft | 332 kts | 25° |
| 2026-04-20 20:41 | 40.16669 | -111.99992 | 12163 ft | 317 kts | 24° |
| 2026-04-20 20:41 | 40.18682 | -111.98933 | 12146 ft | 305 kts | 13° |
| 2026-04-20 20:41 | 40.20722 | -111.98890 | 12177 ft | 289 kts | 351° |
| 2026-04-20 20:41 | 40.22690 | -111.99226 | 12160 ft | 281 kts | 351° |
| 2026-04-20 20:42 | 40.24601 | -111.99547 | 12170 ft | 272 kts | 351° |
| 2026-04-20 20:42 | 40.26459 | -111.99862 | 12171 ft | 265 kts | 351° |
| 2026-04-20 20:42 | 40.28258 | -112.00166 | 12166 ft | 258 kts | 350° |
| 2026-04-20 20:42 | 40.30029 | -112.00453 | 12177 ft | 252 kts | 351° |
| 2026-04-20 20:43 | 40.31748 | -112.00733 | 12168 ft | 247 kts | 350° |
| 2026-04-20 20:43 | 40.33427 | -112.01002 | 12175 ft | 242 kts | 350° |
| 2026-04-20 20:43 | 40.35091 | -112.01272 | 12174 ft | 238 kts | 351° |
| 2026-04-20 20:43 | 40.36714 | -112.01530 | 12173 ft | 234 kts | 351° |
| 2026-04-20 20:44 | 40.38321 | -112.01783 | 12163 ft | 230 kts | 350° |
| 2026-04-20 20:44 | 40.39907 | -112.02025 | 12168 ft | 226 kts | 350° |
| 2026-04-20 20:44 | 40.41457 | -112.02261 | 12165 ft | 224 kts | 351° |
| 2026-04-20 20:44 | 40.43012 | -112.02499 | 12177 ft | 227 kts | 351° |
| 2026-04-20 20:45 | 40.44591 | -112.02742 | 12175 ft | 231 kts | 351° |
| 2026-04-20 20:45 | 40.46210 | -112.02992 | 12178 ft | 234 kts | 351° |
| 2026-04-20 20:45 | 40.47834 | -112.03243 | 12178 ft | 238 kts | 350° |
| 2026-04-20 20:45 | 40.49494 | -112.03497 | 12166 ft | 240 kts | 351° |
| 2026-04-20 20:46 | 40.51157 | -112.03754 | 12156 ft | 243 kts | 351° |
| 2026-04-20 20:46 | 40.52859 | -112.04014 | 12170 ft | 245 kts | 351° |
| 2026-04-20 20:46 | 40.54546 | -112.04280 | 12171 ft | 247 kts | 351° |
| 2026-04-20 20:46 | 40.56257 | -112.04552 | 12167 ft | 249 kts | 350° |
| 2026-04-20 20:47 | 40.57998 | -112.04825 | 12160 ft | 252 kts | 351° |
| 2026-04-20 20:47 | 40.59741 | -112.05095 | 12161 ft | 253 kts | 351° |
| 2026-04-20 20:47 | 40.61488 | -112.05372 | 12159 ft | 255 kts | 351° |
| 2026-04-20 20:47 | 40.63277 | -112.05657 | 12157 ft | 257 kts | 350° |
| 2026-04-20 20:48 | 40.65042 | -112.05933 | 12152 ft | 259 kts | 351° |
| 2026-04-20 20:48 | 40.66840 | -112.06215 | 12151 ft | 260 kts | 351° |
| 2026-04-20 20:48 | 40.68641 | -112.06504 | 12145 ft | 262 kts | 351° |
| 2026-04-20 20:48 | 40.70451 | -112.06789 | 12143 ft | 263 kts | 351° |
| 2026-04-20 20:49 | 40.72278 | -112.07076 | 12138 ft | 264 kts | 351° |
| 2026-04-20 20:49 | 40.74089 | -112.07355 | 12139 ft | 265 kts | 351° |
| 2026-04-20 20:49 | 40.75920 | -112.07639 | 12139 ft | 265 kts | 351° |
| 2026-04-20 20:49 | 40.77768 | -112.07923 | 12130 ft | 266 kts | 351° |
| 2026-04-20 20:50 | 40.79619 | -112.08213 | 12129 ft | 267 kts | 351° |
| 2026-04-20 20:50 | 40.81459 | -112.08500 | 12066 ft | 271 kts | 351° |
| 2026-04-20 20:50 | 40.83379 | -112.08805 | 11946 ft | 276 kts | 351° |
| 2026-04-20 20:50 | 40.85310 | -112.09111 | 11744 ft | 285 kts | 351° |
| 2026-04-20 20:51 | 40.87287 | -112.09426 | 11544 ft | 292 kts | 351° |
| 2026-04-20 20:51 | 40.89315 | -112.09749 | 11350 ft | 297 kts | 351° |
| 2026-04-20 20:51 | 40.91412 | -112.10089 | 11165 ft | 302 kts | 351° |
| 2026-04-20 20:51 | 40.93494 | -112.10424 | 11132 ft | 300 kts | 351° |
| 2026-04-20 20:52 | 40.95536 | -112.10755 | 11124 ft | 297 kts | 351° |
| 2026-04-20 20:52 | 40.97582 | -112.11085 | 11123 ft | 295 kts | 351° |
| 2026-04-20 20:52 | 40.99617 | -112.11405 | 11121 ft | 292 kts | 351° |
| 2026-04-20 20:52 | 41.01633 | -112.11723 | 11128 ft | 290 kts | 351° |
| 2026-04-20 20:53 | 41.03618 | -112.12042 | 11127 ft | 289 kts | 351° |
| 2026-04-20 20:53 | 41.05619 | -112.12358 | 11124 ft | 287 kts | 351° |
| 2026-04-20 20:53 | 41.07598 | -112.12671 | 11124 ft | 286 kts | 351° |
| 2026-04-20 20:53 | 41.09573 | -112.12985 | 11127 ft | 285 kts | 351° |
| 2026-04-20 20:54 | 41.11543 | -112.13290 | 11096 ft | 286 kts | 351° |
| 2026-04-20 20:54 | 41.13571 | -112.13607 | 10783 ft | 296 kts | 351° |
| 2026-04-20 20:54 | 41.15678 | -112.13945 | 10162 ft | 318 kts | 351° |
| 2026-04-20 20:54 | 41.17910 | -112.14314 | 9522 ft | 335 kts | 351° |
| 2026-04-20 20:55 | 41.20261 | -112.14716 | 9191 ft | 336 kts | 351° |
| 2026-04-20 20:55 | 41.22543 | -112.15108 | 9132 ft | 329 kts | 351° |
| 2026-04-20 20:55 | 41.24777 | -112.15489 | 9122 ft | 322 kts | 351° |
| 2026-04-20 20:55 | 41.27004 | -112.15868 | 9120 ft | 315 kts | 351° |
| 2026-04-20 20:56 | 41.29148 | -112.15775 | 9103 ft | 312 kts | 16° |
| 2026-04-20 20:56 | 41.30951 | -112.14322 | 9127 ft | 305 kts | 48° |
| 2026-04-20 20:56 | 41.31932 | -112.11913 | 9137 ft | 295 kts | 78° |
| 2026-04-20 20:56 | 41.31905 | -112.09274 | 9128 ft | 283 kts | 111° |
| 2026-04-20 20:57 | 41.30854 | -112.07175 | 9133 ft | 270 kts | 145° |
| 2026-04-20 20:57 | 41.29272 | -112.06258 | 9145 ft | 260 kts | 172° |
| 2026-04-20 20:57 | 41.27488 | -112.05911 | 9134 ft | 258 kts | 174° |
| 2026-04-20 20:57 | 41.25716 | -112.05584 | 9130 ft | 257 kts | 174° |
| 2026-04-20 20:58 | 41.23952 | -112.05262 | 9126 ft | 256 kts | 174° |
| 2026-04-20 20:58 | 41.22181 | -112.04942 | 9125 ft | 255 kts | 174° |
| 2026-04-20 20:58 | 41.20429 | -112.04629 | 9124 ft | 254 kts | 174° |
| 2026-04-20 20:58 | 41.18670 | -112.04310 | 9125 ft | 254 kts | 174° |
| 2026-04-20 20:59 | 41.16934 | -112.03996 | 9125 ft | 253 kts | 174° |
| 2026-04-20 20:59 | 41.15192 | -112.03680 | 9123 ft | 253 kts | 174° |
| 2026-04-20 20:59 | 41.13448 | -112.03363 | 9124 ft | 252 kts | 174° |
| 2026-04-20 20:59 | 41.11698 | -112.03045 | 9124 ft | 252 kts | 174° |
| 2026-04-20 21:00 | 41.09954 | -112.02728 | 9124 ft | 252 kts | 174° |
| 2026-04-20 21:00 | 41.08261 | -112.02206 | 9109 ft | 256 kts | 155° |
| 2026-04-20 21:00 | 41.06704 | -112.01047 | 9118 ft | 253 kts | 164° |
| 2026-04-20 21:00 | 41.05016 | -112.00629 | 9138 ft | 249 kts | 175° |
| 2026-04-20 21:01 | 41.03319 | -112.00111 | 9129 ft | 251 kts | 166° |
| 2026-04-20 21:01 | 41.01601 | -111.99942 | 9141 ft | 246 kts | 185° |
| 2026-04-20 21:01 | 40.99886 | -111.99890 | 9129 ft | 248 kts | 177° |
| 2026-04-20 21:01 | 40.98188 | -111.99715 | 8696 ft | 239 kts | 177° |
| 2026-04-20 21:02 | 40.96631 | -111.99600 | 8136 ft | 211 kts | 182° |
| 2026-04-20 21:02 | 40.95241 | -111.99487 | 7711 ft | 190 kts | 175° |
| 2026-04-20 21:02 | 40.93958 | -111.99268 | 7159 ft | 186 kts | 175° |
| 2026-04-20 21:02 | 40.92759 | -111.99106 | 6963 ft | 162 kts | 176° |
| 2026-04-20 21:03 | 40.91649 | -111.98980 | 6535 ft | 160 kts | 176° |
| 2026-04-20 21:03 | 40.90561 | -111.98853 | 6140 ft | 158 kts | 174° |
| 2026-04-20 21:03 | 40.89469 | -111.98733 | 5719 ft | 156 kts | 178° |
| 2026-04-20 21:03 | 40.88424 | -111.98630 | 5519 ft | 145 kts | 172° |
| 2026-04-20 21:04 | 40.87413 | -111.98467 | 5230 ft | 147 kts | 174° |
| 2026-04-20 21:04 | 40.86436 | -111.98351 | 5204 ft | 134 kts | 173° |
| 2026-04-20 21:04 | 40.85475 | -111.98247 | 5052 ft | 141 kts | 174° |
| 2026-04-20 21:04 | 40.84493 | -111.98130 | 4904 ft | 146 kts | 173° |
| 2026-04-20 21:05 | 40.83508 | -111.98017 | 4839 ft | 135 kts | 173° |
| 2026-04-20 21:05 | 40.82574 | -111.97905 | 4656 ft | 133 kts | 173° |
| 2026-04-20 21:05 | 40.81669 | -111.97802 | 4504 ft | 130 kts | 172° |
| 2026-04-20 21:05 | 40.80756 | -111.97694 | 4297 ft | 131 kts | 173° |
| 2026-04-20 21:06 | 40.79884 | -111.97588 | 4240 ft | 123 kts | 171° |
| 2026-04-20 21:06 | 40.79163 | -111.97493 | 4229 ft | 56 kts | 175° |
| 2026-04-20 21:06 | 40.79078 | -111.97484 | 4229 ft | 0 kts | 179° |